createdAt,value
2019-06-07T00:02:25.717Z,12.50
2019-06-07T00:07:29.593Z,12.00
2019-06-07T00:12:33.374Z,13.25
2019-06-07T00:17:37.171Z,14.00
2019-06-07T00:22:40.996Z,12.25
2019-06-07T00:27:44.836Z,10.75
2019-06-07T00:32:48.618Z,12.00
2019-06-07T00:37:52.389Z,11.00
2019-06-07T00:42:56.150Z,11.20
2019-06-07T00:48:00.081Z,11.00
2019-06-07T00:53:29.152Z,11.00
2019-06-07T00:58:09.415Z,11.50
2019-06-07T01:03:14.853Z,12.00
2019-06-07T01:08:21.568Z,14.00
2019-06-07T01:13:26.766Z,13.40
2019-06-07T01:18:38.440Z,12.00
2019-06-07T01:24:05.515Z,13.50
2019-06-07T01:28:41.290Z,13.50
2019-06-07T01:33:50.780Z,14.00
2019-06-07T01:38:50.749Z,13.25
2019-06-07T01:43:54.675Z,14.00
2019-06-07T01:48:58.454Z,16.25
2019-06-07T01:54:48.672Z,16.25
2019-06-07T01:59:08.058Z,15.40
2019-06-07T02:04:11.941Z,13.75
2019-06-07T02:09:15.816Z,15.00
2019-06-07T02:14:22.301Z,11.50
2019-06-07T02:19:27.463Z,13.60
2019-06-07T02:24:34.628Z,15.40
2019-06-07T02:29:36.371Z,15.50
2019-06-07T02:34:40.242Z,16.75
2019-06-07T02:39:44.030Z,22.40
2019-06-07T02:44:47.798Z,16.50
2019-06-07T02:49:51.738Z,16.50
2019-06-07T02:54:55.578Z,15.00
2019-06-07T03:00:16.634Z,13.00
2019-06-07T03:05:05.138Z,13.75
2019-06-07T03:10:09.829Z,16.80
2019-06-07T03:15:31.981Z,15.40
2019-06-07T03:20:20.607Z,14.00
2019-06-07T03:25:25.737Z,14.00
2019-06-07T03:30:48.630Z,13.25
2019-06-07T03:35:37.344Z,16.50
2019-06-07T03:40:40.743Z,13.00
2019-06-07T03:45:44.619Z,14.75
2019-06-07T03:51:03.851Z,13.75
2019-06-07T03:55:53.861Z,14.50
2019-06-07T04:01:01.978Z,17.50
2019-06-07T04:06:03.156Z,17.00
2019-06-07T04:11:06.913Z,17.25
2019-06-07T04:16:10.721Z,16.20
2019-06-07T04:21:14.547Z,17.25
2019-06-07T04:26:18.324Z,18.00
2019-06-07T04:31:22.240Z,18.00
2019-06-07T04:36:44.288Z,15.80
2019-06-07T04:41:33.555Z,16.00
2019-06-07T04:46:40.804Z,17.25
2019-06-07T04:51:42.726Z,16.80
2019-06-07T04:56:46.497Z,17.50
2019-06-07T05:01:50.265Z,17.00
2019-06-07T05:06:54.102Z,17.50
2019-06-07T05:11:57.918Z,17.50
2019-06-07T05:17:01.684Z,16.25
2019-06-07T05:22:05.593Z,17.25
2019-06-07T05:27:09.387Z,18.00
2019-06-07T05:32:13.376Z,17.20
2019-06-07T05:37:17.151Z,17.40
2019-06-07T05:42:20.928Z,19.50
2019-06-07T05:47:25.402Z,17.50
2019-06-07T05:52:29.348Z,19.00
2019-06-07T05:57:36.340Z,20.00
2019-06-07T06:02:58.708Z,20.25
2019-06-07T06:07:49.972Z,18.50
2019-06-07T06:12:51.653Z,18.00
2019-06-07T06:17:55.139Z,19.00
2019-06-07T06:22:58.964Z,21.00
2019-06-07T06:28:11.122Z,17.50
2019-06-07T06:33:27.068Z,17.60
2019-06-07T06:38:13.774Z,17.50
2019-06-07T06:43:17.567Z,21.50
2019-06-07T06:48:21.499Z,18.00
2019-06-07T06:53:25.292Z,17.40
2019-06-07T06:58:29.052Z,17.00
2019-06-07T07:04:09.551Z,16.75
2019-06-07T07:08:38.320Z,17.60
2019-06-07T07:13:44.482Z,19.80
2019-06-07T07:18:51.224Z,21.00
2019-06-07T07:24:19.513Z,20.75
2019-06-07T07:28:58.577Z,19.75
2019-06-07T07:39:07.907Z,19.50
2019-06-07T07:44:11.721Z,19.50
2019-06-07T07:49:15.495Z,20.40
2019-06-07T07:54:19.292Z,19.80
2019-06-07T07:59:41.121Z,20.00
2019-06-07T08:05:12.375Z,21.75
2019-06-07T08:09:34.296Z,12.50
2019-06-07T08:14:38.060Z,18.25
2019-06-07T08:19:41.842Z,12.25
2019-06-07T08:24:45.610Z,11.50
2019-06-07T08:30:10.221Z,19.00
2019-06-07T08:34:59.792Z,20.75
2019-06-07T08:40:01.814Z,13.00
2019-06-07T08:45:07.087Z,12.80
2019-06-07T08:50:10.948Z,21.80
2019-06-07T08:55:14.762Z,22.20
2019-06-07T09:00:43.356Z,17.75
2019-06-07T09:05:25.371Z,21.00
2019-06-07T09:10:29.221Z,19.40
2019-06-07T09:15:32.990Z,15.50
2019-06-07T09:20:47.698Z,19.50
2019-06-07T09:26:01.018Z,15.75
2019-06-07T09:30:57.883Z,14.50
2019-06-07T09:36:09.222Z,14.50
2019-06-07T09:41:09.642Z,15.00
2019-06-07T09:46:16.285Z,14.40
2019-06-07T09:51:20.543Z,14.00
2019-06-07T09:56:24.759Z,14.75
2019-06-07T10:01:28.546Z,14.50
2019-06-07T10:06:32.334Z,12.00
2019-06-07T10:11:36.116Z,14.75
2019-06-07T10:16:48.026Z,13.40
2019-06-07T10:21:45.403Z,12.00
2019-06-07T10:26:49.166Z,18.00
2019-06-07T10:31:53.003Z,12.00
2019-06-07T10:36:56.821Z,12.00
2019-06-07T10:42:00.939Z,12.00
2019-06-07T10:47:06.060Z,11.25
2019-06-07T10:52:11.519Z,11.75
2019-06-07T11:13:33.719Z,10.20
2019-06-07T11:18:37.505Z,12.80
2019-06-07T11:23:41.279Z,12.00
2019-06-07T11:28:45.082Z,12.75
2019-06-07T12:11:16.366Z,9.00
2019-06-07T12:16:20.511Z,10.25
2019-06-07T12:21:24.313Z,9.00
2019-06-07T12:26:28.134Z,10.00
2019-06-07T12:31:31.973Z,9.20
2019-06-07T12:36:35.741Z,9.00
2019-06-07T12:41:39.520Z,9.00
2019-06-07T12:46:43.295Z,8.00
2019-06-07T12:51:47.086Z,9.00
2019-06-07T12:56:52.439Z,8.00
2019-06-07T13:02:01.834Z,7.00
2019-06-07T13:07:02.028Z,6.75
2019-06-07T13:12:05.809Z,9.50
2019-06-07T13:17:09.608Z,8.00
2019-06-07T13:22:13.405Z,7.25
2019-06-07T13:27:18.278Z,7.00
2019-06-07T13:32:22.227Z,8.60
2019-06-07T13:37:26.034Z,9.75
2019-06-07T13:42:29.969Z,8.00
2019-06-07T13:47:33.867Z,8.00
2019-06-07T13:52:37.848Z,7.00
2019-06-07T13:57:41.687Z,7.00
2019-06-07T14:02:45.538Z,8.00
2019-06-07T14:07:49.392Z,7.75
2019-06-07T14:12:53.241Z,8.80
2019-06-07T14:17:57.041Z,8.00
2019-06-07T14:23:00.864Z,7.50
2019-06-07T14:28:11.019Z,11.00
2019-06-07T14:33:10.377Z,10.00
2019-06-07T14:38:14.136Z,11.50
2019-06-07T14:43:17.933Z,13.00
2019-06-07T14:48:21.718Z,13.25
2019-06-07T14:53:26.589Z,13.50
2019-06-07T14:58:31.732Z,13.60
2019-06-07T15:03:35.623Z,14.00
2019-06-07T15:08:39.394Z,14.00
2019-06-07T15:13:43.169Z,15.20
2019-06-07T15:18:47.300Z,14.60
2019-06-07T15:23:51.107Z,16.00
2019-06-07T15:28:54.858Z,15.50
2019-06-07T15:33:58.653Z,16.00
2019-06-07T15:39:02.439Z,17.00
2019-06-07T15:44:06.191Z,15.40
2019-06-07T15:49:09.989Z,16.00
2019-06-07T15:54:13.764Z,14.80
2019-06-07T15:59:17.545Z,17.20
2019-06-07T16:04:21.354Z,17.40
2019-06-07T16:09:25.128Z,16.00
2019-06-07T16:14:28.908Z,15.75
2019-06-07T16:19:34.308Z,17.00
2019-06-07T16:24:38.283Z,17.00
2019-06-07T16:29:42.759Z,16.00
2019-06-07T16:34:46.685Z,16.40
2019-06-07T16:39:50.443Z,17.25
2019-06-07T16:44:54.287Z,15.80
2019-06-07T16:49:58.059Z,16.00
2019-06-07T16:55:01.987Z,15.00
2019-06-07T17:00:06.331Z,14.80
2019-06-07T17:05:10.169Z,16.40
2019-06-07T17:10:14.022Z,15.80
2019-06-07T17:15:17.916Z,16.00
2019-06-07T17:20:23.338Z,16.75
2019-06-07T17:25:27.128Z,15.50
2019-06-07T17:30:30.980Z,16.00
2019-06-07T17:35:34.750Z,16.00
2019-06-07T17:40:38.608Z,15.00
2019-06-07T17:45:43.461Z,16.50
2019-06-07T17:50:47.821Z,16.00
2019-06-07T17:55:52.394Z,15.00
2019-06-07T18:00:56.246Z,14.20
2019-06-07T18:06:00.095Z,16.25
2019-06-07T18:11:04.404Z,15.80
2019-06-07T18:16:08.189Z,16.00
2019-06-07T18:21:12.031Z,17.50
2019-06-07T18:26:16.023Z,17.40
2019-06-07T18:31:19.859Z,17.50
2019-06-07T18:36:23.637Z,17.50
2019-06-07T18:41:27.413Z,15.75
2019-06-07T18:46:31.189Z,19.25
2019-06-07T18:51:35.045Z,18.00
2019-06-07T18:56:38.841Z,18.75
2019-06-07T19:01:42.690Z,18.00
2019-06-07T19:06:46.486Z,19.50
2019-06-07T19:11:50.895Z,18.60
2019-06-07T19:16:55.584Z,18.50
2019-06-07T19:22:00.164Z,18.00
2019-06-07T19:27:04.467Z,16.75
2019-06-07T19:32:08.411Z,18.25
2019-06-07T19:37:12.192Z,17.40
2019-06-07T19:42:15.970Z,17.40
2019-06-07T19:47:19.748Z,18.00
2019-06-07T19:52:23.509Z,17.00
2019-06-07T19:57:27.310Z,17.50
2019-06-07T20:02:31.094Z,16.25
2019-06-07T20:07:34.886Z,17.75
2019-06-07T20:12:39.623Z,16.75
2019-06-07T20:17:43.695Z,17.00
2019-06-07T20:22:47.469Z,17.25
2019-06-07T20:27:51.232Z,15.75
2019-06-07T20:32:55.192Z,17.25
2019-06-07T20:37:59.062Z,17.25
2019-06-07T20:43:03.521Z,16.25
2019-06-07T20:48:08.448Z,18.20
2019-06-07T20:53:12.488Z,16.80
2019-06-07T20:58:16.351Z,16.20
2019-06-07T21:03:20.143Z,16.40
2019-06-07T21:08:24.014Z,17.75
2019-06-07T21:13:28.135Z,17.00
2019-06-07T21:18:31.935Z,16.00
2019-06-07T21:23:35.777Z,16.25
2019-06-07T21:28:39.943Z,16.00
2019-06-07T21:33:43.933Z,17.00
2019-06-07T21:38:47.805Z,17.40
2019-06-07T21:43:51.597Z,15.25
2019-06-07T21:48:55.643Z,16.00
2019-06-07T21:53:59.442Z,16.40
2019-06-07T21:59:03.430Z,16.50
2019-06-07T22:04:07.545Z,15.00
2019-06-07T22:09:12.425Z,15.80
2019-06-07T22:14:16.251Z,16.50
2019-06-07T22:19:20.028Z,16.00
2019-06-07T22:24:23.813Z,14.80
2019-06-07T22:29:27.584Z,16.00
2019-06-07T22:34:31.440Z,15.60
2019-06-07T22:39:35.212Z,15.00
2019-06-07T22:44:40.269Z,16.50
2019-06-07T22:49:44.067Z,14.80
2019-06-07T22:54:47.848Z,16.60
2019-06-07T22:59:51.608Z,14.80
2019-06-07T23:04:55.482Z,14.50
2019-06-07T23:09:59.277Z,15.00
2019-06-07T23:15:03.078Z,15.50
2019-06-07T23:20:07.456Z,14.20
2019-06-07T23:25:12.233Z,14.20
2019-06-07T23:30:18.596Z,13.00
2019-06-07T23:35:22.873Z,12.00
2019-06-07T23:40:26.673Z,14.60
2019-06-07T23:45:30.505Z,13.50
2019-06-07T23:50:34.274Z,12.00
2019-06-07T23:55:38.086Z,13.50
